Detalhes do Voo

Voltar

 DETALHES DO VÔO

Piloto: GLD1744 Wesley I. Aeronave: Cessna Distância: 163NM
Origem: SBST Destino: SSPG Duração: 1.73
Validação: Validado Tipo: Charter Matrícula: PT-GLD
ZFW: 2032 Block Fuel/Init FOB 72/43 Combustível em Voo 72
Passageiros: 0 Carga: 0 Alternativo: SBNF
Hora da Decolagem: 1334 Velocidade de Cruzeiro: 115 Nível de Voo: 2500
Regra Visual: VFR ICAO da Aeronave: C172 Unidade de Peso: Kg
Data: 08/03/2026 Observação: GOLD ACARS Rede: VATSIM
Acidentou?: Não Comentários do Validador: Pontuação do Voo 85.1847

 ROTA

ROTA 2411S04647W DCT 2442S04733W DCT 2507S04752W
REMARKS FROM/SSGB OPR/GOLD VIRTUAL AIRLINES PER/A RMK/PIC GLD1744/EM TREINAMENTO VFR

 PENALIDADES DO VOO

Para entender como cada item é pontuado, consulte as regras de avaliação.

Nenhuma penalidade registrada para este voo.

 ANÁLISE DO POUSO

Vento durante o pouso: 152º/6 kt Proa durante o pouso: 238
V/S do Pouso: -108 ft/min IAS do Pouso: 57 kt
Força G no pouso: 1.0304 G Bank no pouso: -1.03
Pitch no Pouso 1.25 Flaps no Pouso 0
Nav Lights ON Landing Lights ON
Beacon Lights ON Strobe Lights ON

 MAPA DO VOO

 PERFIL VERTICAL DO VOO

 EVENTOS PRINCIPAIS DO VOO

DATAEVENTOIASALTITUDE
2026-03-08 13:34:43 GOLD ACARS VERSION 3.3.6.900
2026-03-08 13:34:43 BOARDING0131
2026-03-08 13:38:06 BCN LIGHTS ON0131
2026-03-08 13:38:27 STARTING ENGINE 10131
2026-03-08 13:38:30 STOPPING ENGINE 10131
2026-03-08 13:38:39 STARTING ENGINE 10131
2026-03-08 13:38:49 NAV LIGHTS ON0131
2026-03-08 13:44:13 TAXI LIGHTS ON021
2026-03-08 13:44:45 TAXI TO THE RWY021
2026-03-08 13:46:13 STOPPING ENGINE 1020
2026-03-08 13:46:14 STARTING ENGINE 1020
2026-03-08 13:46:55 STB LIGHTS ON020
2026-03-08 13:46:56 TAXI LIGHTS OFF020
2026-03-08 13:48:21 CLIMBING6440
2026-03-08 13:49:45 CRUISE791463
2026-03-08 13:49:51 CLIMBING861494
2026-03-08 13:49:54 CRUISE901514
2026-03-08 13:49:58 CLIMBING951542
2026-03-08 13:50:05 CRUISE981607
2026-03-08 13:50:40 CLIMBING1191699
2026-03-08 13:50:42 CRUISE1191706
2026-03-08 13:50:49 CLIMBING1171744
2026-03-08 13:52:12 CRUISE1042452
2026-03-08 13:54:19 CLIMBING1042623
2026-03-08 13:54:27 CRUISE1012680
2026-03-08 13:55:21 CLIMBING1092577
2026-03-08 13:55:28 CRUISE1012655
2026-03-08 13:55:38 AP ENGAGED1102556
2026-03-08 14:23:45 LND LIGHTS OFF1062514
2026-03-08 14:23:45 LIGHTS OFF BELOW 10000 ft1062515
2026-03-08 14:31:01 AP DISENGAGED1042511
2026-03-08 14:31:09 AP ENGAGED1082473
2026-03-08 14:48:57 AP DISENGAGED1072510
2026-03-08 14:49:20 AP ENGAGED1072546
2026-03-08 14:50:32 TAXI LIGHTS ON1102438
2026-03-08 14:52:14 CLIMBING1092356
2026-03-08 14:52:28 CRUISE1102484
2026-03-08 14:56:37 TAXI LIGHTS OFF1122471
2026-03-08 15:09:18 AP DISENGAGED1102461
2026-03-08 15:09:21 AP ENGAGED1102464
2026-03-08 15:14:05 AP DISENGAGED1162472
2026-03-08 15:15:15 LANDING891473
2026-03-08 15:17:56 LANDED AIRPORT [SSPG]6324
2026-03-08 15:17:56 LANDED - VS: -108 ft/min5622
2026-03-08 15:18:00 AT THE GATE2819
2026-03-08 15:18:29 STOPPING ENGINE 1016
2026-03-08 15:18:36 STB LIGHTS OFF016
2026-03-08 15:18:37 NAV LIGHTS OFF016
2026-03-08 15:18:38 LND LIGHTS OFF016
2026-03-08 15:18:41 BCN LIGHTS OFF016
2026-03-08 15:18:46 LANDED NOT IN THE PLANNED AIRPORT [SSGB] - [lat: -25,5380653267424] - [long: -48,5303074750676]016
2026-03-08 15:18:46 FLIGHT FINISHED016

 DADOS DO ACARS

DATA IAS GS ALTITUDE COMBUSTÍVEL USADO OAT FASE DO VOO
2026-03-08 13:36:43 0 0 131 0 29 BOARDING
2026-03-08 13:37:43 0 0 131 0 29 BOARDING
2026-03-08 13:38:43 0 0 131 0 29 BOARDING
2026-03-08 13:39:43 0 0 131 0 29 BOARDING
2026-03-08 13:40:43 0 0 131 0 29 BOARDING
2026-03-08 13:41:43 0 0 131 0 29 BOARDING
2026-03-08 13:42:43 0 0 131 0 29 BOARDING
2026-03-08 13:43:43 0 0 21 0 29 BOARDING
2026-03-08 13:44:43 0 3 21 0 29 BOARDING
2026-03-08 13:45:43 0 12 21 0 29 BOARDING
2026-03-08 13:46:43 0 0 20 0 29 TAXI TO THE RWY
2026-03-08 13:47:43 0 0 17 0 29 TAXI TO THE RWY
2026-03-08 13:48:43 62 74 375 0 28 TAXI TO THE RWY
2026-03-08 13:49:43 75 79 1450 1 24 CLIMBING
2026-03-08 13:50:43 119 121 1708 1 23 CLIMBING
2026-03-08 13:51:43 103 106 2256 2 22 CRUISE
2026-03-08 13:52:43 111 113 2425 2 22 CLIMBING
2026-03-08 13:53:44 102 106 2517 2 22 CRUISE
2026-03-08 13:54:44 104 109 2677 3 22 CRUISE
2026-03-08 13:55:44 110 113 2538 3 22 CRUISE
2026-03-08 13:56:44 105 108 2549 4 22 CRUISE
2026-03-08 13:57:44 101 106 2543 4 22 CRUISE
2026-03-08 13:58:44 102 106 2529 4 22 CRUISE
2026-03-08 13:59:44 107 111 2514 5 22 CRUISE
2026-03-08 14:00:44 101 105 2515 5 22 CRUISE
2026-03-08 14:01:44 113 118 2528 5 22 CRUISE
2026-03-08 14:02:44 108 112 2523 6 22 CRUISE
2026-03-08 14:03:44 104 109 2516 6 22 CRUISE
2026-03-08 14:04:45 114 117 2531 6 22 CRUISE
2026-03-08 14:05:45 106 112 2515 7 22 CRUISE
2026-03-08 14:06:45 105 112 2522 7 22 CRUISE
2026-03-08 14:07:45 110 116 2524 7 22 CRUISE
2026-03-08 14:08:45 106 111 2516 7 22 CRUISE
2026-03-08 14:09:45 106 111 2514 8 22 CRUISE
2026-03-08 14:10:45 108 112 2520 8 22 CRUISE
2026-03-08 14:11:45 107 108 2516 8 22 CRUISE
2026-03-08 14:12:45 110 111 2519 9 22 CRUISE
2026-03-08 14:13:45 107 107 2512 9 22 CRUISE
2026-03-08 14:14:45 106 106 2512 9 22 CRUISE
2026-03-08 14:15:45 107 109 2516 10 22 CRUISE
2026-03-08 14:16:45 111 111 2527 10 22 CRUISE
2026-03-08 14:17:45 107 107 2516 10 22 CRUISE
2026-03-08 14:18:45 120 121 2532 11 22 CRUISE
2026-03-08 14:19:45 108 109 2509 11 22 CRUISE
2026-03-08 14:20:45 107 110 2516 11 22 CRUISE
2026-03-08 14:21:45 110 112 2517 11 22 CRUISE
2026-03-08 14:22:45 106 106 2512 12 22 CRUISE
2026-03-08 14:23:46 107 107 2516 12 21 CRUISE
2026-03-08 14:24:46 108 111 2526 12 21 CRUISE
2026-03-08 14:25:46 112 112 2525 13 21 CRUISE
2026-03-08 14:26:46 106 109 2513 13 21 CRUISE
2026-03-08 14:27:46 107 110 2512 13 21 CRUISE
2026-03-08 14:28:46 106 107 2517 14 21 CRUISE
2026-03-08 14:29:46 108 110 2515 14 21 CRUISE
2026-03-08 14:30:46 106 108 2513 14 21 CRUISE
2026-03-08 14:31:46 99 101 2588 15 21 CRUISE
2026-03-08 14:32:46 117 118 2576 15 21 CRUISE
2026-03-08 14:33:46 111 112 2505 15 21 CRUISE
2026-03-08 14:34:46 111 111 2506 15 21 CRUISE
2026-03-08 14:35:46 112 113 2510 16 21 CRUISE
2026-03-08 14:36:46 111 113 2503 16 21 CRUISE
2026-03-08 14:37:46 111 114 2507 16 21 CRUISE
2026-03-08 14:38:47 111 117 2503 17 21 CRUISE
2026-03-08 14:39:47 114 115 2504 17 21 CRUISE
2026-03-08 14:40:47 113 113 2506 17 21 CRUISE
2026-03-08 14:41:47 107 107 2502 18 21 CRUISE
2026-03-08 14:42:47 106 106 2505 18 21 CRUISE
2026-03-08 14:43:47 107 106 2509 18 21 CRUISE
2026-03-08 14:44:47 112 109 2518 19 20 CRUISE
2026-03-08 14:45:47 114 112 2508 19 20 CRUISE
2026-03-08 14:46:47 110 108 2502 19 20 CRUISE
2026-03-08 14:47:47 108 105 2501 20 20 CRUISE
2026-03-08 14:48:47 107 104 2507 20 20 CRUISE
2026-03-08 14:49:47 112 108 2508 20 20 CRUISE
2026-03-08 14:50:47 112 107 2416 21 20 CRUISE
2026-03-08 14:51:48 115 113 2306 21 20 CRUISE
2026-03-08 14:52:48 131 125 2483 21 20 CRUISE
2026-03-08 14:53:48 87 83 2460 21 20 CRUISE
2026-03-08 14:54:48 109 109 2477 22 20 CRUISE
2026-03-08 14:55:48 114 112 2469 22 20 CRUISE
2026-03-08 14:56:48 111 110 2472 22 20 CRUISE
2026-03-08 14:57:48 115 114 2481 23 20 CRUISE
2026-03-08 14:58:48 114 114 2468 23 20 CRUISE
2026-03-08 14:59:48 108 109 2462 23 20 CRUISE
2026-03-08 15:00:48 112 109 2468 24 19 CRUISE
2026-03-08 15:01:48 111 106 2459 24 19 CRUISE
2026-03-08 15:02:48 111 107 2467 24 19 CRUISE
2026-03-08 15:03:48 113 107 2468 24 19 CRUISE
2026-03-08 15:04:48 110 107 2460 25 19 CRUISE
2026-03-08 15:05:48 108 104 2462 25 19 CRUISE
2026-03-08 15:06:48 110 107 2470 25 19 CRUISE
2026-03-08 15:07:48 113 112 2476 26 19 CRUISE
2026-03-08 15:08:49 112 110 2470 26 19 CRUISE
2026-03-08 15:09:49 108 108 2471 26 19 CRUISE
2026-03-08 15:10:49 120 118 2486 27 19 CRUISE
2026-03-08 15:11:49 125 123 2484 27 19 CRUISE
2026-03-08 15:12:49 123 142 2469 28 19 CRUISE
2026-03-08 15:13:49 119 136 2469 28 19 CRUISE
2026-03-08 15:14:49 102 117 1854 28 20 CRUISE
2026-03-08 15:15:49 82 92 1076 28 22 CRUISE
2026-03-08 15:16:49 78 82 585 28 24 LANDING
2026-03-08 15:17:49 68 74 63 28 24 LANDING